Time;durP1;ratioP1;P1;durP2;ratioP2;P2;SDS_P1;SDS_P2;PMS_P1;PMS_P2;Temp;Humidity;BMP_temperature;BMP_pressure;BME280_temperature;BME280_humidity;BME280_pressure;Samples;Min_cycle;Max_cycle;Signal;HPM_P1;HPM_P2
2024/01/10 00:01:42;;;;;;;10.83;10.53;;;-3.90;99.90;;;;;;6048945;23;20278;-80
2024/01/10 00:04:10;;;;;;;10.73;10.43;;;-3.90;99.90;;;;;;6050957;23;20203;-80
2024/01/10 00:06:37;;;;;;;10.70;10.40;;;-3.90;99.90;;;;;;6051953;23;20195;-80
2024/01/10 00:09:05;;;;;;;10.50;10.20;;;-3.90;99.90;;;;;;6050619;23;20203;-80
2024/01/10 00:11:32;;;;;;;10.57;10.27;;;-3.80;99.90;;;;;;6050763;23;20211;-81
2024/01/10 00:13:59;;;;;;;10.47;10.17;;;-3.80;99.90;;;;;;6048934;23;20203;-80
2024/01/10 00:16:27;;;;;;;10.40;10.10;;;-3.90;99.90;;;;;;6049132;23;20258;-80
2024/01/10 00:18:56;;;;;;;10.40;10.10;;;-3.90;99.90;;;;;;6049546;23;20250;-80
2024/01/10 00:21:23;;;;;;;10.47;10.17;;;-4.00;99.90;;;;;;6049104;23;20209;-80
2024/01/10 00:23:50;;;;;;;10.80;10.50;;;-4.10;99.90;;;;;;6049568;23;20218;-80
2024/01/10 00:26:18;;;;;;;10.10;9.80;;;-4.10;99.90;;;;;;6049403;23;20215;-80
2024/01/10 00:28:46;;;;;;;11.00;10.70;;;-4.10;99.90;;;;;;6048786;23;20199;-80
2024/01/10 00:31:13;;;;;;;10.47;10.17;;;-4.10;99.90;;;;;;6048730;23;20689;-80
2024/01/10 00:33:40;;;;;;;10.20;9.90;;;-4.20;99.90;;;;;;6049751;23;20218;-80
2024/01/10 00:36:09;;;;;;;10.40;10.10;;;-4.20;99.90;;;;;;6049368;23;20221;-80
2024/01/10 00:38:38;;;;;;;10.70;10.40;;;-4.10;99.90;;;;;;6050846;23;20200;-80
2024/01/10 00:41:05;;;;;;;10.20;9.90;;;-4.10;99.90;;;;;;6050664;23;20223;-80
2024/01/10 00:43:33;;;;;;;10.70;10.40;;;-4.00;99.90;;;;;;6049709;23;20210;-80
2024/01/10 00:46:00;;;;;;;10.53;10.23;;;-4.00;99.90;;;;;;6049983;23;20213;-80
2024/01/10 00:48:28;;;;;;;10.30;10.00;;;-4.00;99.90;;;;;;6050004;23;20195;-80
2024/01/10 00:50:55;;;;;;;10.63;10.33;;;-3.90;99.90;;;;;;6057750;23;20255;-80
2024/01/10 00:53:24;;;;;;;10.37;10.07;;;-4.00;99.90;;;;;;6062822;23;20218;-80
2024/01/10 00:55:51;;;;;;;10.37;10.07;;;-3.90;99.90;;;;;;6062414;23;20229;-80
2024/01/10 00:58:19;;;;;;;10.43;10.13;;;-3.90;99.90;;;;;;6060033;23;20222;-80
2024/01/10 01:00:46;;;;;;;10.50;10.20;;;-3.90;99.90;;;;;;6050007;23;20223;-80
2024/01/10 01:03:13;;;;;;;10.47;10.17;;;-3.90;99.90;;;;;;6049370;23;20209;-80
2024/01/10 01:05:41;;;;;;;10.50;10.20;;;-4.00;99.90;;;;;;6049329;23;20203;-80
2024/01/10 01:08:08;;;;;;;11.00;10.70;;;-4.00;99.90;;;;;;6049219;23;20203;-80
2024/01/10 01:10:37;;;;;;;10.47;10.17;;;-4.00;99.90;;;;;;6049777;23;20238;-80
2024/01/10 01:13:05;;;;;;;10.30;10.00;;;-3.90;99.90;;;;;;6050907;23;20214;-81
2024/01/10 01:15:32;;;;;;;10.60;10.30;;;-3.90;99.90;;;;;;6049145;23;20324;-80
2024/01/10 01:18:00;;;;;;;10.40;10.10;;;-3.90;99.90;;;;;;6049741;23;20191;-80
2024/01/10 01:20:29;;;;;;;10.60;10.30;;;-3.90;99.90;;;;;;6049962;23;20250;-81
2024/01/10 01:22:57;;;;;;;10.63;10.33;;;-3.90;99.90;;;;;;6049620;23;20265;-80
2024/01/10 01:25:24;;;;;;;10.00;9.70;;;-3.90;99.90;;;;;;6049747;23;20206;-80
2024/01/10 01:27:53;;;;;;;10.20;9.90;;;-4.00;99.90;;;;;;6049692;23;20210;-80
2024/01/10 01:30:21;;;;;;;10.47;10.17;;;-4.00;99.90;;;;;;6049687;23;20211;-80
2024/01/10 01:32:49;;;;;;;10.00;9.70;;;-4.00;99.90;;;;;;6049687;23;20206;-80
2024/01/10 01:35:21;;;;;;;10.13;9.83;;;-4.00;99.90;;;;;;6049389;23;20298;-80
2024/01/10 01:37:49;;;;;;;10.43;10.13;;;-4.00;99.90;;;;;;6049175;23;20360;-82
2024/01/10 01:40:16;;;;;;;9.90;9.60;;;-4.00;99.90;;;;;;6049102;23;20199;-80
2024/01/10 01:42:46;;;;;;;10.43;10.13;;;-4.00;99.90;;;;;;6049245;23;20287;-80
2024/01/10 01:45:15;;;;;;;10.57;10.27;;;-4.00;99.90;;;;;;6050069;23;20215;-80
2024/01/10 01:47:43;;;;;;;10.57;10.27;;;-4.00;99.90;;;;;;6049620;23;20203;-80
2024/01/10 01:50:11;;;;;;;10.57;10.27;;;-4.00;99.90;;;;;;6049051;23;20208;-80
2024/01/10 01:52:39;;;;;;;10.33;10.03;;;-3.90;99.90;;;;;;6049908;23;20203;-80
2024/01/10 01:55:08;;;;;;;10.47;10.17;;;-3.80;99.90;;;;;;6049603;23;20202;-80
2024/01/10 01:57:36;;;;;;;10.30;10.00;;;-3.80;99.90;;;;;;6048761;23;20206;-80
2024/01/10 02:00:05;;;;;;;10.50;10.20;;;-3.80;99.90;;;;;;6050643;23;20222;-80
2024/01/10 02:02:35;;;;;;;10.20;9.90;;;-3.80;99.90;;;;;;6050700;23;20203;-80
2024/01/10 02:05:03;;;;;;;10.50;10.20;;;-4.00;99.90;;;;;;6049622;23;20203;-83
2024/01/10 02:07:31;;;;;;;10.00;9.70;;;-4.00;99.90;;;;;;6048646;23;20261;-80
2024/01/10 02:09:58;;;;;;;10.50;10.20;;;-4.00;99.90;;;;;;6048733;23;20214;-80
2024/01/10 02:12:26;;;;;;;10.33;10.03;;;-4.00;99.90;;;;;;6052564;23;20211;-80
2024/01/10 02:14:53;;;;;;;10.60;10.30;;;-3.90;99.90;;;;;;6048733;23;20206;-80
2024/01/10 02:17:21;;;;;;;10.70;10.40;;;-4.10;99.90;;;;;;6048668;23;20199;-80
2024/01/10 02:19:49;;;;;;;10.50;10.20;;;-4.10;99.90;;;;;;6048140;23;20201;-80
2024/01/10 02:22:17;;;;;;;10.27;9.97;;;-4.20;99.90;;;;;;6048828;23;20201;-80
2024/01/10 02:24:44;;;;;;;10.87;10.57;;;-4.10;99.90;;;;;;6048375;23;20206;-79
2024/01/10 02:27:13;;;;;;;10.50;10.20;;;-4.20;99.90;;;;;;6049129;23;20203;-80
2024/01/10 02:29:40;;;;;;;10.13;9.83;;;-4.20;99.90;;;;;;6049322;23;20216;-80
2024/01/10 02:32:08;;;;;;;10.47;10.17;;;-4.20;99.90;;;;;;6049006;23;20230;-80
2024/01/10 02:34:35;;;;;;;10.43;10.13;;;-4.20;99.90;;;;;;6049042;23;20198;-80
2024/01/10 02:37:03;;;;;;;10.80;10.50;;;-4.20;99.90;;;;;;6048655;23;20195;-80
2024/01/10 02:39:30;;;;;;;10.30;10.00;;;-4.20;99.90;;;;;;6049239;23;20203;-80
2024/01/10 02:42:01;;;;;;;10.60;10.30;;;-4.20;99.90;;;;;;6049109;23;20198;-80
2024/01/10 02:44:29;;;;;;;10.33;10.03;;;-4.20;99.90;;;;;;6049726;23;20225;-80
2024/01/10 02:46:57;;;;;;;10.13;9.83;;;-4.30;99.90;;;;;;6049081;23;20228;-80
2024/01/10 02:49:24;;;;;;;9.83;9.53;;;-4.20;99.90;;;;;;6050550;23;20197;-80
2024/01/10 02:51:51;;;;;;;10.33;10.03;;;-4.20;99.90;;;;;;6052440;23;20209;-80
2024/01/10 02:54:19;;;;;;;10.47;10.17;;;-4.30;99.90;;;;;;6054477;23;20685;-79
2024/01/10 02:56:46;;;;;;;10.30;10.00;;;-4.30;99.90;;;;;;6049986;23;20209;-80
2024/01/10 02:59:14;;;;;;;9.97;9.67;;;-4.30;99.90;;;;;;6049282;23;20206;-80
2024/01/10 03:01:42;;;;;;;10.10;9.80;;;-4.30;99.90;;;;;;6049850;23;20233;-80
2024/01/10 03:04:10;;;;;;;10.27;9.97;;;-4.30;99.90;;;;;;6049945;23;20206;-80
2024/01/10 03:06:37;;;;;;;9.87;9.57;;;-4.30;99.90;;;;;;6050470;23;20199;-80
2024/01/10 03:09:05;;;;;;;10.30;10.00;;;-4.30;99.90;;;;;;6050838;23;20203;-81
2024/01/10 03:11:33;;;;;;;10.23;9.93;;;-4.30;99.90;;;;;;6051614;23;20199;-80
2024/01/10 03:14:05;;;;;;;9.97;9.67;;;-4.30;99.90;;;;;;6053104;23;20249;-79
2024/01/10 03:16:32;;;;;;;9.90;9.60;;;-4.30;99.90;;;;;;6051612;23;20210;-80
2024/01/10 03:19:01;;;;;;;10.10;9.80;;;-4.20;99.90;;;;;;6050985;23;20217;-81
2024/01/10 03:21:29;;;;;;;10.17;9.87;;;-4.20;99.90;;;;;;6050982;23;20199;-80
2024/01/10 03:23:58;;;;;;;10.33;10.03;;;-4.30;99.90;;;;;;6050592;23;20214;-80
2024/01/10 03:26:26;;;;;;;10.40;10.10;;;-4.20;99.90;;;;;;6050578;23;20222;-79
2024/01/10 03:28:54;;;;;;;9.83;9.53;;;-4.30;99.90;;;;;;6050662;23;20202;-82
2024/01/10 03:31:22;;;;;;;9.77;9.47;;;-4.20;99.90;;;;;;6050343;23;20194;-80
2024/01/10 03:33:50;;;;;;;10.07;9.77;;;-4.30;99.90;;;;;;6050600;23;20210;-80
2024/01/10 03:36:19;;;;;;;10.10;9.80;;;-4.40;99.90;;;;;;6050604;23;20206;-80
2024/01/10 03:38:47;;;;;;;10.10;9.80;;;-4.40;99.90;;;;;;6053731;23;20203;-80
2024/01/10 03:41:15;;;;;;;10.00;9.70;;;-4.40;99.90;;;;;;6051541;23;20203;-80
2024/01/10 03:43:42;;;;;;;9.73;9.43;;;-4.30;99.90;;;;;;6050404;23;20270;-80
2024/01/10 03:46:10;;;;;;;10.37;10.07;;;-4.30;99.90;;;;;;6050311;23;20210;-80
2024/01/10 03:48:38;;;;;;;10.00;9.70;;;-4.30;99.90;;;;;;6050285;23;20250;-81
2024/01/10 03:51:06;;;;;;;10.03;9.73;;;-4.30;99.90;;;;;;6050686;23;20253;-80
2024/01/10 03:53:35;;;;;;;9.33;9.03;;;-4.40;99.90;;;;;;6050947;23;20234;-80
2024/01/10 03:56:05;;;;;;;10.30;10.00;;;-4.40;99.90;;;;;;6049982;23;20197;-80
2024/01/10 03:58:33;;;;;;;10.10;9.80;;;-4.30;99.90;;;;;;6050723;23;20193;-80
2024/01/10 04:01:05;;;;;;;9.90;9.60;;;-4.30;99.90;;;;;;6051347;23;20202;-80
2024/01/10 04:03:33;;;;;;;10.20;9.90;;;-4.30;99.90;;;;;;6051602;23;20199;-80
2024/01/10 04:06:00;;;;;;;10.03;9.73;;;-4.40;99.90;;;;;;6050856;23;20258;-81
2024/01/10 04:08:27;;;;;;;10.10;9.80;;;-4.30;99.90;;;;;;6050720;23;20191;-80
2024/01/10 04:10:57;;;;;;;9.47;9.17;;;-4.40;99.90;;;;;;6050721;23;20195;-80
2024/01/10 04:13:25;;;;;;;9.90;9.60;;;-4.50;99.90;;;;;;6050388;23;20206;-81
2024/01/10 04:15:52;;;;;;;10.20;9.90;;;-4.50;99.90;;;;;;6049991;23;20231;-80
2024/01/10 04:18:20;;;;;;;9.97;9.67;;;-4.40;99.90;;;;;;6051596;23;20207;-81
2024/01/10 04:20:48;;;;;;;10.40;10.10;;;-4.50;99.90;;;;;;6049900;23;20199;-80
2024/01/10 04:23:15;;;;;;;9.80;9.50;;;-4.50;99.90;;;;;;6050403;23;20245;-80
2024/01/10 04:25:43;;;;;;;9.83;9.53;;;-4.50;99.90;;;;;;6051607;23;20206;-80
2024/01/10 04:28:11;;;;;;;10.20;9.90;;;-4.50;99.90;;;;;;6050770;23;20230;-80
2024/01/10 04:30:39;;;;;;;10.07;9.77;;;-4.50;99.90;;;;;;6052660;23;20265;-80
2024/01/10 04:33:06;;;;;;;9.97;9.67;;;-4.50;99.90;;;;;;6052764;23;20205;-80
2024/01/10 04:35:34;;;;;;;10.13;9.83;;;-4.60;99.90;;;;;;6052020;23;20233;-80
2024/01/10 04:38:02;;;;;;;9.70;9.40;;;-4.60;99.90;;;;;;6052218;23;20208;-80
2024/01/10 04:40:29;;;;;;;10.10;9.80;;;-4.60;99.90;;;;;;6054134;23;20203;-80
2024/01/10 04:42:57;;;;;;;10.03;9.73;;;-4.60;99.90;;;;;;6053487;23;20265;-80
2024/01/10 04:45:26;;;;;;;10.07;9.77;;;-4.60;99.90;;;;;;6062742;23;20233;-79
2024/01/10 04:47:53;;;;;;;9.73;9.43;;;-4.60;99.90;;;;;;6065468;23;20206;-80
2024/01/10 04:50:20;;;;;;;9.80;9.50;;;-4.70;99.90;;;;;;6059869;23;20273;-80
2024/01/10 04:52:48;;;;;;;9.53;9.23;;;-4.60;99.90;;;;;;6052169;23;20225;-80
2024/01/10 04:55:15;;;;;;;10.00;9.70;;;-4.70;99.90;;;;;;6052647;23;20206;-80
2024/01/10 04:57:43;;;;;;;9.90;9.60;;;-4.70;99.90;;;;;;6052042;23;20258;-80
2024/01/10 05:00:11;;;;;;;10.40;10.10;;;-4.80;99.90;;;;;;6054547;23;20202;-80
2024/01/10 05:02:40;;;;;;;9.83;9.53;;;-4.80;99.90;;;;;;6053068;23;20285;-80
2024/01/10 05:05:08;;;;;;;10.03;9.73;;;-4.80;99.90;;;;;;6052990;23;20199;-81
2024/01/10 05:07:36;;;;;;;9.70;9.40;;;-4.80;99.90;;;;;;6052760;23;20249;-80
2024/01/10 05:10:04;;;;;;;10.40;10.10;;;-4.80;99.90;;;;;;6052798;23;20207;-80
2024/01/10 05:12:31;;;;;;;10.23;9.93;;;-4.80;99.90;;;;;;6052252;23;20206;-81
2024/01/10 05:14:59;;;;;;;10.20;9.90;;;-4.80;99.90;;;;;;6054073;23;20198;-80
2024/01/10 05:17:27;;;;;;;9.97;9.67;;;-4.70;99.90;;;;;;6052448;23;20202;-78
2024/01/10 05:19:55;;;;;;;9.80;9.50;;;-4.70;99.90;;;;;;6052251;23;20676;-80
2024/01/10 05:22:23;;;;;;;9.53;9.23;;;-4.70;99.90;;;;;;6053143;23;20238;-80
2024/01/10 05:24:50;;;;;;;9.50;9.20;;;-4.70;99.90;;;;;;6052376;23;20201;-80
2024/01/10 05:27:18;;;;;;;10.27;9.97;;;-4.70;99.90;;;;;;6051762;23;20210;-80
2024/01/10 05:29:46;;;;;;;10.30;10.00;;;-4.70;99.90;;;;;;6052644;23;20289;-80
2024/01/10 05:32:15;;;;;;;9.43;9.13;;;-4.70;99.90;;;;;;6053429;23;20281;-80
2024/01/10 05:34:46;;;;;;;10.20;9.90;;;-4.70;99.90;;;;;;6052784;23;20281;-80
2024/01/10 05:37:15;;;;;;;9.30;9.00;;;-4.80;99.90;;;;;;6052697;23;20197;-80
2024/01/10 05:39:42;;;;;;;9.83;9.53;;;-4.70;99.90;;;;;;6054830;23;20233;-79
2024/01/10 05:42:10;;;;;;;9.80;9.50;;;-4.70;99.90;;;;;;6059628;23;20230;-79
2024/01/10 05:44:49;;;;;;;9.63;9.33;;;-4.70;99.90;;;;;;6070215;22;20237;-84
2024/01/10 05:47:19;;;;;;;8.93;8.73;;;-4.60;99.90;;;;;;6074338;23;20251;-85
2024/01/10 05:49:50;;;;;;;9.73;9.43;;;-4.60;99.90;;;;;;6074650;23;20195;-86
2024/01/10 05:52:33;;;;;;;;;;;;;;;;;;;;;
2024/01/10 05:55:06;;;;;;;9.80;9.50;;;-4.60;99.90;;;;;;6046101;23;20206;-86
2024/01/10 05:57:43;;;;;;;9.37;9.07;;;-4.60;99.90;;;;;;6046296;23;20210;-86
2024/01/10 06:00:16;;;;;;;9.50;9.20;;;-4.60;99.90;;;;;;6046368;23;20277;-86
2024/01/10 06:02:50;;;;;;;9.60;9.30;;;-4.60;99.90;;;;;;6046716;23;20206;-86
2024/01/10 06:05:33;;;;;;;9.83;9.53;;;-4.60;99.90;;;;;;6046082;23;20209;-86
2024/01/10 06:08:14;;;;;;;9.83;9.53;;;-4.60;99.90;;;;;;6045088;23;20209;-86
2024/01/10 06:10:45;;;;;;;9.90;9.60;;;-4.60;99.90;;;;;;6046098;23;20206;-86
2024/01/10 06:13:18;;;;;;;9.53;9.23;;;-4.60;99.90;;;;;;6046416;23;20749;-86
2024/01/10 06:15:50;;;;;;;9.87;9.57;;;-4.60;99.90;;;;;;6045868;23;20285;-86
2024/01/10 06:18:25;;;;;;;9.33;9.03;;;-4.60;99.90;;;;;;6045739;23;20241;-84
2024/01/10 06:20:59;;;;;;;10.07;9.77;;;-4.50;99.90;;;;;;6045788;23;20198;-84
2024/01/10 06:23:35;;;;;;;10.10;9.80;;;-4.50;99.90;;;;;;6045049;23;20203;-84
2024/01/10 06:26:08;;;;;;;10.10;9.80;;;-4.40;99.90;;;;;;6045412;23;20218;-83
2024/01/10 06:28:42;;;;;;;10.03;9.73;;;-4.30;99.90;;;;;;6045790;23;20312;-84
2024/01/10 06:31:25;;;;;;;10.17;9.87;;;-4.40;99.90;;;;;;6046494;23;20250;-84
2024/01/10 06:33:53;;;;;;;9.70;9.40;;;-4.40;99.90;;;;;;6046160;23;20210;-84
2024/01/10 06:36:24;;;;;;;9.67;9.37;;;-4.40;99.90;;;;;;6046185;23;20210;-84
2024/01/10 06:39:00;;;;;;;9.60;9.30;;;-4.40;99.90;;;;;;6065997;23;20182;-83
2024/01/10 06:41:28;;;;;;;9.97;9.67;;;-4.40;99.90;;;;;;6057566;23;20201;-84
2024/01/10 06:44:04;;;;;;;9.53;9.23;;;-4.40;99.90;;;;;;6060795;23;20214;-84
2024/01/10 06:46:36;;;;;;;10.07;9.77;;;-4.50;99.90;;;;;;6074880;23;20234;-84
2024/01/10 06:49:16;;;;;;;9.70;9.40;;;-4.50;99.90;;;;;;6073532;23;20202;-84
2024/01/10 06:51:50;;;;;;;9.10;8.83;;;-4.50;99.90;;;;;;6073574;23;20223;-84
2024/01/10 06:54:21;;;;;;;9.87;9.57;;;-4.60;99.90;;;;;;6076159;23;20208;-84
2024/01/10 06:56:52;;;;;;;9.77;9.47;;;-4.60;99.90;;;;;;6076057;23;20282;-85
2024/01/10 06:59:22;;;;;;;9.87;9.57;;;-4.60;99.90;;;;;;6076579;23;20277;-84
2024/01/10 07:02:01;;;;;;;10.17;9.87;;;-4.50;99.90;;;;;;6079346;23;20205;-84
2024/01/10 07:04:29;;;;;;;9.53;9.23;;;-4.50;99.90;;;;;;6075391;23;20202;-85
2024/01/10 07:07:02;;;;;;;9.90;9.60;;;-4.50;99.90;;;;;;6075063;23;20201;-84
2024/01/10 07:09:32;;;;;;;9.80;9.50;;;-4.50;99.90;;;;;;6088726;23;20250;-84
2024/01/10 07:12:04;;;;;;;9.47;9.17;;;-4.50;99.90;;;;;;6096251;23;20241;-82
2024/01/10 07:14:31;;;;;;;10.00;9.70;;;-4.50;99.90;;;;;;6096231;23;20218;-83
2024/01/10 07:17:04;;;;;;;9.50;9.20;;;-4.50;99.90;;;;;;6096039;23;20208;-82
2024/01/10 07:19:33;;;;;;;9.23;8.93;;;-4.50;99.90;;;;;;6087668;23;20201;-85
2024/01/10 07:22:02;;;;;;;9.60;9.30;;;-4.50;99.90;;;;;;6074628;23;20209;-85
2024/01/10 07:24:32;;;;;;;9.87;9.57;;;-4.50;99.90;;;;;;6075284;23;20233;-85
2024/01/10 07:27:03;;;;;;;10.00;9.70;;;-4.50;99.90;;;;;;6074666;23;20257;-85
2024/01/10 07:29:41;;;;;;;9.77;9.47;;;-4.40;99.90;;;;;;6074855;23;20198;-85
2024/01/10 07:32:13;;;;;;;9.90;9.60;;;-4.40;99.90;;;;;;6075821;23;20190;-84
2024/01/10 07:34:42;;;;;;;9.87;9.57;;;-4.40;99.90;;;;;;6075271;23;20198;-85
2024/01/10 07:37:12;;;;;;;9.53;9.23;;;-4.40;99.90;;;;;;6074056;23;20203;-85
2024/01/10 07:39:45;;;;;;;9.57;9.27;;;-4.30;99.90;;;;;;6074057;23;20204;-84
2024/01/10 07:42:16;;;;;;;9.60;9.30;;;-4.30;99.90;;;;;;6074429;23;20197;-84
2024/01/10 07:44:46;;;;;;;9.43;9.13;;;-4.30;99.90;;;;;;6074068;23;20214;-85
2024/01/10 07:47:20;;;;;;;9.53;9.23;;;-4.20;99.90;;;;;;6074485;23;20210;-83
2024/01/10 07:49:47;;;;;;;9.60;9.30;;;-4.20;99.90;;;;;;6091286;23;20181;-84
2024/01/10 07:52:17;;;;;;;9.60;9.30;;;-4.20;99.90;;;;;;6096276;23;20210;-85
2024/01/10 07:54:47;;;;;;;10.00;9.70;;;-4.20;99.90;;;;;;6095533;23;20202;-82
2024/01/10 07:57:19;;;;;;;9.87;9.57;;;-4.20;99.90;;;;;;6078487;23;20253;-83
2024/01/10 07:59:52;;;;;;;9.63;9.33;;;-4.10;99.90;;;;;;6076185;23;20230;-84
2024/01/10 08:02:27;;;;;;;9.57;9.27;;;-4.10;99.90;;;;;;6076497;23;20194;-83
2024/01/10 08:04:55;;;;;;;9.57;9.27;;;-4.10;99.90;;;;;;6076482;23;20202;-83
2024/01/10 08:07:28;;;;;;;9.67;9.37;;;-4.00;99.90;;;;;;6076315;23;20241;-83
2024/01/10 08:10:19;;;;;;;9.40;9.10;;;-4.00;99.90;;;;;;6075107;23;20202;-83
2024/01/10 08:12:53;;;;;;;9.60;9.30;;;-4.00;99.90;;;;;;6074861;23;20233;-84
2024/01/10 08:15:55;;;;;;;9.70;9.40;;;-4.00;99.90;;;;;;6076766;23;20270;-84
2024/01/10 08:18:27;;;;;;;9.77;9.47;;;-3.90;99.90;;;;;;6076027;23;20257;-83
2024/01/10 08:21:02;;;;;;;10.13;9.83;;;-4.00;99.90;;;;;;6075955;23;20214;-84
2024/01/10 08:23:35;;;;;;;9.50;9.20;;;-4.00;99.90;;;;;;6077309;23;20206;-82
2024/01/10 08:26:13;;;;;;;9.80;9.50;;;-4.10;99.90;;;;;;6076655;23;20217;-84
2024/01/10 08:28:46;;;;;;;9.67;9.37;;;-4.00;99.90;;;;;;6076738;23;20210;-84
2024/01/10 08:31:22;;;;;;;9.47;9.17;;;-4.00;99.90;;;;;;6077197;23;20202;-84
2024/01/10 08:33:50;;;;;;;9.80;9.50;;;-4.00;99.90;;;;;;6075553;23;20296;-84
2024/01/10 08:36:27;;;;;;;9.63;9.33;;;-3.90;99.90;;;;;;6075458;23;20251;-83
2024/01/10 08:38:57;;;;;;;9.67;9.37;;;-3.90;99.90;;;;;;6075467;23;20198;-84
2024/01/10 08:41:31;;;;;;;10.00;9.70;;;-3.70;99.90;;;;;;6076139;23;20210;-83
2024/01/10 08:44:02;;;;;;;9.90;9.60;;;-3.70;99.90;;;;;;6075474;23;20757;-84
2024/01/10 08:46:33;;;;;;;10.37;10.07;;;-3.60;99.90;;;;;;6077066;23;20204;-83
2024/01/10 08:49:02;;;;;;;10.07;9.77;;;-3.50;99.90;;;;;;6095817;23;20202;-82
2024/01/10 08:51:40;;;;;;;9.67;9.37;;;-3.50;99.90;;;;;;6082103;23;20245;-83
2024/01/10 08:54:19;;;;;;;9.77;9.47;;;-3.40;99.90;;;;;;6077980;23;20202;-84
2024/01/10 08:57:07;;;;;;;;;;;;;;;;;;;;;
2024/01/10 09:00:04;;;;;;;10.10;9.80;;;-3.20;99.90;;;;;;6074396;23;20199;-84
2024/01/10 09:02:55;;;;;;;10.33;10.03;;;-3.10;99.90;;;;;;6074952;23;20195;-84
2024/01/10 09:05:41;;;;;;;10.50;10.20;;;-3.00;99.90;;;;;;6074802;23;20253;-84
2024/01/10 09:08:15;;;;;;;10.23;9.93;;;-2.80;99.90;;;;;;6075057;23;20218;-84
2024/01/10 09:10:52;;;;;;;10.43;10.13;;;-2.70;99.90;;;;;;6075618;23;20223;-84
2024/01/10 09:13:38;;;;;;;9.83;9.53;;;-2.50;99.90;;;;;;6074364;23;20207;-83
2024/01/10 09:16:11;;;;;;;10.10;9.80;;;-2.40;99.90;;;;;;6074808;23;20200;-84
2024/01/10 09:19:01;;;;;;;9.97;9.67;;;-2.40;99.90;;;;;;6074409;23;20253;-84
2024/01/10 09:21:35;;;;;;;10.30;10.00;;;-2.50;99.90;;;;;;6075886;23;20662;-84
2024/01/10 09:24:11;;;;;;;9.70;9.40;;;-2.40;99.90;;;;;;6075350;23;20233;-83
2024/01/10 09:33:08;;;;;;;10.37;10.07;;;-2.00;99.90;;;;;;6100892;23;20218;-83
2024/01/10 09:35:58;;;;;;;10.30;10.00;;;-1.90;99.90;;;;;;6075478;23;20201;-84
2024/01/10 09:39:19;;;;;;;10.23;9.93;;;-1.90;99.90;;;;;;6076822;23;20193;-84
2024/01/10 09:42:12;;;;;;;10.73;10.43;;;-1.70;99.90;;;;;;6096700;23;20201;-83
2024/01/10 09:44:57;;;;;;;10.23;9.93;;;-1.60;99.90;;;;;;6096549;23;20240;-83
2024/01/10 09:47:50;;;;;;;;;;;;;;;;;;;;;
2024/01/10 09:50:52;;;;;;;10.40;10.10;;;-1.30;99.90;;;;;;6075958;23;20220;-84
2024/01/10 09:53:40;;;;;;;10.40;10.10;;;-1.10;99.90;;;;;;6075186;23;20220;-84
2024/01/10 09:56:19;;;;;;;10.67;10.37;;;-0.80;99.90;;;;;;6075180;23;20212;-84
2024/01/10 09:58:58;;;;;;;10.33;10.03;;;-0.60;99.90;;;;;;6074266;23;20206;-85
2024/01/10 10:01:35;;;;;;;10.50;10.20;;;-0.50;99.90;;;;;;6074511;23;20190;-85
2024/01/10 10:04:27;;;;;;;10.83;10.53;;;-0.40;99.90;;;;;;6074598;23;20340;-84
2024/01/10 10:07:08;;;;;;;10.50;10.20;;;-0.30;99.90;;;;;;6076477;23;20198;-84
2024/01/10 10:09:42;;;;;;;10.53;10.23;;;-0.20;99.90;;;;;;6082577;23;20218;-85
2024/01/10 10:12:13;;;;;;;10.53;10.23;;;0.00;99.90;;;;;;6075124;23;20197;-86
2024/01/10 10:14:53;;;;;;;10.50;10.20;;;0.40;99.90;;;;;;6075044;23;20202;-86
2024/01/10 10:17:25;;;;;;;10.53;10.23;;;0.70;99.90;;;;;;6074706;23;20214;-85
2024/01/10 10:20:05;;;;;;;10.23;9.93;;;0.70;99.90;;;;;;6075540;23;20203;-85
2024/01/10 10:22:35;;;;;;;10.57;10.27;;;0.60;99.90;;;;;;6076290;23;20194;-84
2024/01/10 10:25:04;;;;;;;10.53;10.23;;;0.50;99.90;;;;;;6090375;23;20208;-85
2024/01/10 10:27:39;;;;;;;10.60;10.30;;;0.40;99.90;;;;;;6096000;23;20190;-85
2024/01/10 10:30:12;;;;;;;10.43;10.13;;;0.40;99.90;;;;;;6095983;23;20258;-84
2024/01/10 10:32:50;;;;;;;10.60;10.30;;;0.50;99.90;;;;;;6095838;23;20250;-85
2024/01/10 10:35:36;;;;;;;10.20;9.90;;;0.60;99.90;;;;;;6082193;23;20466;-85
2024/01/10 10:38:08;;;;;;;10.73;10.43;;;0.80;99.90;;;;;;6076516;23;20253;-86
2024/01/10 10:40:52;;;;;;;10.60;10.30;;;1.10;99.90;;;;;;6077069;23;20194;-86
2024/01/10 10:43:38;;;;;;;10.60;10.30;;;1.30;99.90;;;;;;6075880;23;20202;-86
2024/01/10 10:46:12;;;;;;;10.53;10.23;;;1.30;99.90;;;;;;6075662;23;20218;-86
2024/01/10 10:48:47;;;;;;;10.77;10.47;;;1.10;99.90;;;;;;6074695;23;20202;-86
2024/01/10 10:51:25;;;;;;;10.90;10.60;;;1.00;99.90;;;;;;6074020;23;20225;-87
2024/01/10 10:53:59;;;;;;;10.57;10.27;;;0.90;99.90;;;;;;6075960;23;20203;-86
2024/01/10 10:56:40;;;;;;;10.70;10.40;;;1.00;99.90;;;;;;6074512;23;20198;-86
2024/01/10 10:59:18;;;;;;;10.97;10.67;;;1.10;99.90;;;;;;6073829;23;20261;-86
2024/01/10 11:01:51;;;;;;;10.67;10.37;;;1.50;99.90;;;;;;6074732;23;20224;-86
2024/01/10 11:04:24;;;;;;;10.60;10.30;;;1.70;99.90;;;;;;6088501;23;20210;-85
2024/01/10 11:07:06;;;;;;;10.40;10.10;;;2.00;99.90;;;;;;6090218;23;20198;-86
2024/01/10 11:09:41;;;;;;;11.03;10.73;;;2.30;99.90;;;;;;6074271;23;20293;-86
2024/01/10 11:12:35;;;;;;;10.97;10.67;;;2.50;99.90;;;;;;6074930;23;20252;-86
2024/01/10 11:15:31;;;;;;;10.90;10.60;;;2.40;99.90;;;;;;6074593;23;20199;-86
2024/01/10 11:18:28;;;;;;;10.57;10.27;;;2.40;99.90;;;;;;6075107;23;20271;-86
2024/01/10 11:21:20;;;;;;;10.67;10.37;;;2.20;99.90;;;;;;6076318;23;20230;-86
2024/01/10 11:24:06;;;;;;;;;;;;;;;;;;;;;
2024/01/10 11:26:43;;;;;;;11.10;10.80;;;2.80;99.90;;;;;;6097465;23;20200;-85
2024/01/10 11:29:13;;;;;;;11.07;10.77;;;2.90;99.90;;;;;;6094903;23;20216;-86
2024/01/10 11:31:43;;;;;;;11.07;10.77;;;3.10;99.90;;;;;;6078365;23;20208;-86
2024/01/10 11:34:17;;;;;;;11.60;11.20;;;3.20;99.90;;;;;;6083379;23;20188;-85
2024/01/10 11:37:12;;;;;;;11.40;11.00;;;3.30;99.90;;;;;;6097231;23;20182;-86
2024/01/10 11:39:49;;;;;;;11.00;10.70;;;3.40;99.90;;;;;;6097806;23;20205;-85
2024/01/10 11:42:48;;;;;;;11.53;11.13;;;3.40;99.90;;;;;;6094114;23;20237;-86
2024/01/10 11:45:45;;;;;;;11.00;10.70;;;3.20;99.90;;;;;;6078954;23;20212;-88
2024/01/10 11:48:35;;;;;;;11.03;10.73;;;3.10;99.90;;;;;;6077290;23;20202;-88
2024/01/10 11:51:07;;;;;;;10.73;10.43;;;3.40;99.90;;;;;;6076823;23;20194;-88
2024/01/10 11:53:50;;;;;;;11.07;10.77;;;3.60;99.90;;;;;;6077291;23;20207;-88
2024/01/10 11:56:26;;;;;;;11.00;10.70;;;3.40;99.90;;;;;;6075876;23;20206;-88
2024/01/10 11:59:20;;;;;;;;;;;;;;;;;;;;;
2024/01/10 12:01:55;;;;;;;11.20;10.80;;;3.70;99.90;;;;;;6076257;23;20199;-88
2024/01/10 12:04:32;;;;;;;11.10;10.80;;;3.90;99.90;;;;;;6075686;23;20712;-88
2024/01/10 12:07:07;;;;;;;11.37;10.97;;;4.00;99.90;;;;;;6075997;23;20198;-88
2024/01/10 12:09:37;;;;;;;11.37;10.97;;;4.00;99.90;;;;;;6075738;23;20208;-88
2024/01/10 12:12:08;;;;;;;11.17;10.87;;;4.30;99.90;;;;;;6077422;23;20195;-88
2024/01/10 12:14:36;;;;;;;10.90;10.60;;;4.60;99.90;;;;;;6076435;23;20206;-88
2024/01/10 12:17:06;;;;;;;10.57;10.27;;;4.60;99.90;;;;;;6076667;23;20202;-88
2024/01/10 12:19:36;;;;;;;10.53;10.23;;;4.40;99.90;;;;;;6076623;23;20206;-88
2024/01/10 12:22:07;;;;;;;10.57;10.27;;;4.40;99.90;;;;;;6075308;23;20202;-88
2024/01/10 12:24:36;;;;;;;10.80;10.50;;;4.50;99.90;;;;;;6076898;23;20228;-88
2024/01/10 12:27:08;;;;;;;10.80;10.50;;;4.80;99.90;;;;;;6075690;23;20191;-88
2024/01/10 12:29:38;;;;;;;11.10;10.80;;;4.70;99.90;;;;;;6075248;23;20233;-88
2024/01/10 12:32:09;;;;;;;10.90;10.60;;;4.40;99.90;;;;;;6075958;23;20209;-88
2024/01/10 12:34:44;;;;;;;10.83;10.53;;;4.40;99.90;;;;;;6075681;23;20262;-88
2024/01/10 12:37:23;;;;;;;10.67;10.37;;;4.50;99.90;;;;;;6076216;23;20213;-87
2024/01/10 12:39:58;;;;;;;10.47;10.17;;;4.60;99.90;;;;;;6077467;23;20202;-87
2024/01/10 12:42:31;;;;;;;10.67;10.37;;;4.60;99.90;;;;;;6078542;23;20202;-87
2024/01/10 12:45:00;;;;;;;10.50;10.20;;;4.60;99.90;;;;;;6082638;23;20208;-87
2024/01/10 12:47:29;;;;;;;10.80;10.50;;;4.60;99.90;;;;;;6082181;23;20195;-87
2024/01/10 12:49:58;;;;;;;10.97;10.67;;;4.50;99.90;;;;;;6076435;23;20209;-87
2024/01/10 12:52:28;;;;;;;10.53;10.23;;;4.60;99.90;;;;;;6076204;23;20195;-87
2024/01/10 12:54:56;;;;;;;10.80;10.50;;;4.80;99.90;;;;;;6075745;23;20245;-88
2024/01/10 12:57:34;;;;;;;;;;;;;;;;;;;;;
2024/01/10 13:00:14;;;;;;;10.63;10.33;;;5.10;99.90;;;;;;6179365;23;20215;-87
2024/01/10 13:02:51;;;;;;;10.90;10.60;;;5.10;99.90;;;;;;6078358;23;20198;-87
2024/01/10 13:05:22;;;;;;;10.70;10.40;;;4.90;99.90;;;;;;6077460;23;20269;-88
2024/01/10 13:08:05;;;;;;;10.37;10.07;;;5.00;99.90;;;;;;6077700;23;20199;-87
2024/01/10 13:10:42;;;;;;;10.80;10.50;;;4.70;99.90;;;;;;6077865;23;20307;-86
2024/01/10 13:13:47;;;;;;;;;;;;;;;;;;;;;
2024/01/10 13:16:24;;;;;;;10.87;10.57;;;4.60;99.90;;;;;;6093189;23;20190;-88
2024/01/10 13:19:02;;;;;;;11.07;10.77;;;4.50;99.90;;;;;;6080379;23;20201;-88
2024/01/10 13:21:36;;;;;;;10.87;10.57;;;4.00;99.90;;;;;;6082683;23;20246;-87